Time;durP1;ratioP1;P1;durP2;ratioP2;P2;SDS_P1;SDS_P2;PMS_P1;PMS_P2;Temp;Humidity;BMP_temperature;BMP_pressure;BME280_temperature;BME280_humidity;BME280_pressure;Samples;Min_cycle;Max_cycle;Signal;HPM_P1;HPM_P2
2024/04/01 00:00:34;;;;;;;20.52;11.70;;;11.80;95.50;;;;;;4973044;28;20019;-80
2024/04/01 00:03:00;;;;;;;20.48;12.30;;;11.80;95.50;;;;;;4973575;28;20436;-80
2024/04/01 00:05:26;;;;;;;14.27;11.38;;;11.80;95.50;;;;;;4974728;28;20027;-78
2024/04/01 00:07:52;;;;;;;23.92;12.90;;;11.80;95.60;;;;;;4974276;28;20055;-77
2024/04/01 00:10:19;;;;;;;21.10;12.20;;;11.80;95.70;;;;;;4974491;28;20433;-77
2024/04/01 00:12:44;;;;;;;16.40;11.80;;;11.80;95.70;;;;;;4974658;28;20026;-78
2024/04/01 00:15:10;;;;;;;20.20;11.73;;;11.80;95.70;;;;;;4974360;28;20027;-77
2024/04/01 00:17:36;;;;;;;15.95;11.73;;;11.70;95.80;;;;;;4973128;28;20022;-76
2024/04/01 00:20:02;;;;;;;21.88;13.30;;;11.70;96.00;;;;;;4974184;28;20029;-77
2024/04/01 00:22:28;;;;;;;22.42;14.25;;;11.70;96.10;;;;;;4974115;28;20015;-76
2024/04/01 00:24:54;;;;;;;21.20;14.82;;;11.70;96.30;;;;;;4974134;28;20392;-77
2024/04/01 00:27:20;;;;;;;18.80;12.95;;;11.70;96.20;;;;;;4974107;28;20415;-77
2024/04/01 00:29:46;;;;;;;18.27;14.45;;;11.70;96.40;;;;;;4972946;28;20127;-76
2024/04/01 00:32:12;;;;;;;23.23;14.27;;;11.70;96.40;;;;;;4974372;28;20022;-78
2024/04/01 00:34:37;;;;;;;17.15;14.13;;;11.70;96.40;;;;;;4972984;28;20113;-78
2024/04/01 00:37:03;;;;;;;19.83;12.65;;;11.60;96.40;;;;;;4974092;28;20023;-78
2024/04/01 00:39:29;;;;;;;20.92;13.32;;;11.60;96.50;;;;;;4974261;28;20015;-77
2024/04/01 00:41:55;;;;;;;18.52;12.57;;;11.60;96.70;;;;;;4973951;28;20400;-78
2024/04/01 00:44:20;;;;;;;18.27;12.13;;;11.60;96.70;;;;;;4973895;28;20089;-77
2024/04/01 00:46:47;;;;;;;24.88;14.48;;;11.50;96.80;;;;;;4973992;28;20030;-77
2024/04/01 00:49:12;;;;;;;18.17;12.50;;;11.50;96.90;;;;;;4974203;28;20027;-79
2024/04/01 00:51:39;;;;;;;24.55;15.75;;;11.50;96.90;;;;;;4975146;28;20041;-77
2024/04/01 00:54:06;;;;;;;25.40;13.67;;;11.50;96.90;;;;;;4974065;28;20023;-77
2024/04/01 00:56:34;;;;;;;21.58;14.95;;;11.50;96.90;;;;;;4973948;28;20015;-78
2024/04/01 00:59:01;;;;;;;;;;;11.50;97.00;;;;;;4974126;28;20082;-77
2024/04/01 01:01:29;;;;;;;19.50;14.35;;;11.50;96.70;;;;;;4973511;28;19916;-78
2024/04/01 01:03:56;;;;;;;21.08;15.07;;;11.40;97.10;;;;;;4974029;28;20030;-77
2024/04/01 01:06:24;;;;;;;22.05;14.77;;;11.40;97.20;;;;;;4976863;28;20015;-79
2024/04/01 01:08:50;;;;;;;24.48;15.57;;;11.40;97.30;;;;;;4975178;28;20073;-75
2024/04/01 01:11:17;;;;;;;17.58;14.38;;;11.40;97.30;;;;;;4969781;28;20043;-77
2024/04/01 01:13:42;;;;;;;21.02;14.90;;;11.40;97.40;;;;;;4969786;28;20041;-78
2024/04/01 01:16:08;;;;;;;17.52;14.13;;;11.40;97.50;;;;;;4972155;28;20023;-77
2024/04/01 01:18:34;;;;;;;22.98;15.27;;;11.40;97.50;;;;;;4973595;28;20026;-77
2024/04/01 01:21:00;;;;;;;25.77;16.67;;;11.40;97.50;;;;;;4973663;28;20034;-77
2024/04/01 01:23:26;;;;;;;20.38;16.23;;;11.30;97.50;;;;;;4973323;28;20046;-76
2024/04/01 01:25:52;;;;;;;23.98;14.68;;;11.30;97.50;;;;;;4973463;28;20504;-77
2024/04/01 01:28:17;;;;;;;28.63;16.20;;;11.30;97.60;;;;;;4973243;28;20035;-77
2024/04/01 01:30:43;;;;;;;23.75;16.27;;;11.30;97.70;;;;;;4971677;28;20062;-77
2024/04/01 01:33:09;;;;;;;21.25;14.73;;;11.20;97.80;;;;;;4973347;28;20089;-76
2024/04/01 01:35:37;;;;;;;21.80;14.15;;;11.20;97.80;;;;;;4972167;28;20054;-77
2024/04/01 01:38:03;;;;;;;;;;;11.20;97.80;;;;;;4973344;28;20048;-76
2024/04/01 01:40:29;;;;;;;19.90;14.70;;;11.20;97.60;;;;;;4973030;28;19918;-76
2024/04/01 01:42:55;;;;;;;19.80;13.02;;;11.20;98.10;;;;;;4973207;28;20452;-76
2024/04/01 01:45:21;;;;;;;33.03;17.13;;;11.20;97.90;;;;;;4973247;28;20037;-77
2024/04/01 01:47:47;;;;;;;23.98;14.70;;;11.20;98.00;;;;;;4973050;28;20098;-77
2024/04/01 01:50:13;;;;;;;24.48;16.00;;;11.20;98.00;;;;;;4973810;28;20041;-76
2024/04/01 01:52:39;;;;;;;33.70;17.75;;;11.10;97.90;;;;;;4973398;28;20034;-78
2024/04/01 01:55:05;;;;;;;30.70;16.35;;;11.20;98.10;;;;;;4973311;28;20082;-79
2024/04/01 01:57:32;;;;;;;24.02;17.20;;;11.20;98.10;;;;;;4971928;28;20183;-76
2024/04/01 01:59:58;;;;;;;17.58;12.90;;;11.20;98.20;;;;;;4971703;28;20415;-78
2024/04/01 02:02:24;;;;;;;24.98;16.02;;;11.20;98.20;;;;;;4974738;28;20030;-77
2024/04/01 02:04:50;;;;;;;25.60;14.35;;;11.20;98.10;;;;;;4977100;28;20026;-78
2024/04/01 02:07:16;;;;;;;25.55;15.32;;;11.20;98.10;;;;;;4975640;28;20072;-79
2024/04/01 02:09:42;;;;;;;25.45;14.95;;;11.30;98.00;;;;;;4976832;28;20022;-77
2024/04/01 02:12:08;;;;;;;21.77;14.30;;;11.20;98.00;;;;;;4977070;28;20526;-76
2024/04/01 02:14:35;;;;;;;25.35;15.48;;;11.20;98.10;;;;;;4975410;28;20031;-77
2024/04/01 02:17:00;;;;;;;19.43;13.73;;;11.20;98.10;;;;;;4976653;28;20023;-79
2024/04/01 02:19:26;;;;;;;19.25;14.88;;;11.20;98.10;;;;;;4975615;28;20122;-77
2024/04/01 02:21:52;;;;;;;23.02;14.10;;;11.20;98.10;;;;;;4974965;28;20508;-77
2024/04/01 02:24:18;;;;;;;17.50;13.20;;;11.20;98.20;;;;;;4976379;28;20031;-77
2024/04/01 02:26:47;;;;;;;27.40;15.38;;;11.20;98.20;;;;;;4975141;28;20030;-78
2024/04/01 02:29:13;;;;;;;23.23;15.10;;;11.20;98.30;;;;;;4976544;28;20116;-77
2024/04/01 02:31:39;;;;;;;24.38;15.38;;;11.20;98.20;;;;;;4976901;28;20066;-77
2024/04/01 02:34:05;;;;;;;22.80;13.25;;;11.20;98.20;;;;;;4976457;28;20027;-78
2024/04/01 02:36:31;;;;;;;22.98;14.80;;;11.20;98.30;;;;;;4976436;28;20015;-77
2024/04/01 02:38:57;;;;;;;23.05;15.32;;;11.20;98.20;;;;;;4972862;28;20035;-78
2024/04/01 02:41:23;;;;;;;27.15;14.23;;;11.20;98.30;;;;;;4976738;28;20077;-78
2024/04/01 02:43:49;;;;;;;21.65;13.27;;;11.10;98.30;;;;;;4976684;28;20023;-76
2024/04/01 02:46:15;;;;;;;21.95;15.20;;;11.10;98.30;;;;;;4976377;28;20105;-77
2024/04/01 02:48:40;;;;;;;22.33;14.48;;;11.10;98.40;;;;;;4975182;28;20069;-77
2024/04/01 02:51:06;;;;;;;17.88;13.75;;;11.10;98.40;;;;;;4963763;28;20102;-77
2024/04/01 02:53:32;;;;;;;20.42;16.35;;;11.10;98.40;;;;;;4976518;28;20137;-76
2024/04/01 02:55:58;;;;;;;27.83;15.65;;;11.10;98.40;;;;;;4976317;28;20396;-78
2024/04/01 02:58:26;;;;;;;24.02;14.23;;;11.10;98.40;;;;;;4968832;28;20069;-78
2024/04/01 03:00:52;;;;;;;30.23;17.70;;;11.10;98.40;;;;;;4961112;28;20070;-77
2024/04/01 03:03:18;;;;;;;28.20;15.82;;;11.10;98.40;;;;;;4957940;28;20439;-78
2024/04/01 03:05:43;;;;;;;20.70;15.10;;;11.10;98.40;;;;;;4970427;28;20038;-77
2024/04/01 03:08:09;;;;;;;23.45;15.50;;;11.20;98.40;;;;;;4974434;28;20137;-77
2024/04/01 03:10:36;;;;;;;22.30;14.13;;;11.20;98.40;;;;;;4976123;28;20035;-77
2024/04/01 03:13:09;;;;;;;32.13;17.95;;;11.20;98.40;;;;;;4975446;28;20030;-76
2024/04/01 03:15:36;;;;;;;24.30;14.50;;;11.20;98.40;;;;;;4974208;28;20023;-77
2024/04/01 03:18:02;;;;;;;23.98;16.10;;;11.30;98.40;;;;;;4974183;28;20138;-77
2024/04/01 03:20:28;;;;;;;25.50;17.13;;;11.30;98.30;;;;;;4975456;28;20019;-76
2024/04/01 03:22:53;;;;;;;26.48;14.57;;;11.20;98.30;;;;;;4975372;28;20029;-78
2024/04/01 03:25:19;;;;;;;21.27;13.07;;;11.30;98.30;;;;;;4975274;28;20105;-76
2024/04/01 03:27:45;;;;;;;25.42;15.50;;;11.30;98.30;;;;;;4973903;28;20053;-77
2024/04/01 03:30:11;;;;;;;30.27;15.93;;;11.30;98.20;;;;;;4973802;28;20037;-77
2024/04/01 03:32:37;;;;;;;28.20;16.27;;;11.30;98.40;;;;;;4975323;28;20022;-76
2024/04/01 03:35:04;;;;;;;32.53;15.77;;;11.30;98.20;;;;;;4975334;28;20031;-77
2024/04/01 03:37:30;;;;;;;27.10;15.05;;;11.40;98.10;;;;;;4975129;28;20023;-76
2024/04/01 03:39:56;;;;;;;24.05;14.85;;;11.40;98.00;;;;;;4975108;28;20026;-76
2024/04/01 03:42:22;;;;;;;22.33;13.50;;;11.50;98.00;;;;;;4974709;28;20027;-78
2024/04/01 03:44:53;;;;;;;26.75;15.35;;;11.50;97.90;;;;;;4974986;28;20038;-76
2024/04/01 03:47:20;;;;;;;23.38;13.90;;;11.50;97.90;;;;;;4974949;28;20062;-78
2024/04/01 03:49:47;;;;;;;27.55;13.30;;;11.50;97.80;;;;;;4974954;28;20093;-77
2024/04/01 03:52:12;;;;;;;30.58;15.18;;;11.50;97.70;;;;;;4973489;28;20102;-77
2024/04/01 03:54:38;;;;;;;27.02;14.35;;;11.50;97.70;;;;;;4974838;28;20019;-76
2024/04/01 03:57:04;;;;;;;29.20;14.98;;;11.50;97.70;;;;;;4970793;28;20038;-78
2024/04/01 03:59:30;;;;;;;34.65;14.88;;;11.60;97.60;;;;;;4974619;28;20114;-79
2024/04/01 04:01:56;;;;;;;29.65;14.60;;;11.60;97.60;;;;;;4974665;28;20019;-78
2024/04/01 04:04:22;;;;;;;26.75;14.20;;;11.60;97.50;;;;;;4974795;28;20161;-77
2024/04/01 04:06:48;;;;;;;21.98;13.07;;;11.60;97.50;;;;;;4973402;28;20439;-75
2024/04/01 04:09:17;;;;;;;33.72;14.82;;;11.60;97.50;;;;;;4974400;28;20022;-77
2024/04/01 04:11:49;;;;;;;26.65;14.27;;;11.60;97.50;;;;;;4973488;28;20046;-76
2024/04/01 04:14:23;;;;;;;27.10;13.35;;;11.60;97.40;;;;;;4974673;28;20077;-79
2024/04/01 04:16:50;;;;;;;30.95;14.98;;;11.70;97.40;;;;;;4974664;28;20131;-76
2024/04/01 04:19:17;;;;;;;18.58;12.75;;;11.70;97.30;;;;;;4973236;28;20372;-79
2024/04/01 04:21:43;;;;;;;22.60;13.02;;;11.80;97.10;;;;;;4974438;28;20039;-76
2024/04/01 04:24:11;;;;;;;28.75;12.82;;;11.80;97.20;;;;;;4974486;28;20023;-76
2024/04/01 04:26:37;;;;;;;24.63;13.57;;;11.80;97.00;;;;;;4974054;28;20027;-77
2024/04/01 04:29:03;;;;;;;27.08;13.48;;;11.80;96.90;;;;;;4975056;28;20069;-78
2024/04/01 04:31:31;;;;;;;22.88;14.43;;;11.90;96.90;;;;;;4976205;28;20033;-80
2024/04/01 04:33:57;;;;;;;24.33;14.05;;;11.90;96.80;;;;;;4974403;28;20030;-78
2024/04/01 04:36:23;;;;;;;32.67;13.40;;;12.00;96.60;;;;;;4974664;28;20381;-77
2024/04/01 04:38:49;;;;;;;21.67;14.10;;;12.00;96.40;;;;;;4974572;28;20053;-78
2024/04/01 04:41:18;;;;;;;28.95;14.00;;;12.10;96.30;;;;;;4974811;28;20113;-78
2024/04/01 04:43:44;;;;;;;29.48;13.73;;;12.20;96.10;;;;;;4974096;28;20023;-77
2024/04/01 04:46:13;;;;;;;28.02;14.82;;;12.20;96.00;;;;;;4974256;28;20039;-75
2024/04/01 04:48:43;;;;;;;24.25;13.15;;;12.30;95.90;;;;;;4972235;28;20042;-78
2024/04/01 04:51:09;;;;;;;20.30;12.98;;;12.40;95.70;;;;;;4960942;28;20023;-79
2024/04/01 04:53:36;;;;;;;24.63;14.07;;;12.40;95.50;;;;;;4973514;28;20035;-79
2024/04/01 04:56:04;;;;;;;20.57;12.17;;;12.50;95.50;;;;;;4973717;28;20464;-78
2024/04/01 04:58:32;;;;;;;23.33;12.77;;;12.50;95.30;;;;;;4973753;28;20371;-77
2024/04/01 05:01:05;;;;;;;27.65;13.68;;;12.60;95.10;;;;;;4973304;28;20157;-78
2024/04/01 05:03:34;;;;;;;28.08;12.13;;;12.60;94.90;;;;;;4973696;28;20019;-78
2024/04/01 05:06:01;;;;;;;21.55;12.25;;;12.70;94.70;;;;;;4973328;28;20033;-77
2024/04/01 05:08:27;;;;;;;26.13;13.80;;;12.60;94.70;;;;;;4973302;28;20037;-77
2024/04/01 05:10:55;;;;;;;29.73;12.95;;;12.70;94.60;;;;;;4972195;28;20066;-77
2024/04/01 05:13:20;;;;;;;;;;;12.90;94.30;;;;;;4973790;28;20022;-79
2024/04/01 05:15:46;;;;;;;24.40;12.55;;;13.00;94.20;;;;;;4973471;28;20342;-78
2024/04/01 05:18:12;;;;;;;24.00;12.68;;;13.10;93.90;;;;;;4973265;28;20069;-77
2024/04/01 05:20:38;;;;;;;35.38;14.40;;;13.10;93.60;;;;;;4973257;28;20021;-77
2024/04/01 05:23:04;;;;;;;25.70;13.60;;;13.30;93.80;;;;;;4973108;28;20046;-78
2024/04/01 05:25:30;;;;;;;31.08;13.25;;;13.30;93.10;;;;;;4972981;28;20027;-76
2024/04/01 05:27:56;;;;;;;26.05;14.13;;;13.40;92.90;;;;;;4973219;28;20035;-79
2024/04/01 05:30:23;;;;;;;23.55;12.70;;;13.60;92.60;;;;;;4971720;28;20046;-78
2024/04/01 05:32:49;;;;;;;28.73;13.05;;;13.60;92.40;;;;;;4973007;28;20070;-77
2024/04/01 05:35:19;;;;;;;28.08;12.02;;;13.70;92.30;;;;;;4973058;28;20027;-79
2024/04/01 05:37:46;;;;;;;28.67;13.18;;;13.70;92.00;;;;;;4972246;28;20015;-76
2024/04/01 05:40:15;;;;;;;23.90;12.52;;;13.70;91.70;;;;;;4972977;28;20472;-77
2024/04/01 05:42:41;;;;;;;22.48;12.52;;;13.70;91.60;;;;;;4972845;28;20496;-78
2024/04/01 05:45:07;;;;;;;29.58;13.57;;;13.70;91.50;;;;;;4972399;28;20062;-77
2024/04/01 05:47:33;;;;;;;25.33;11.90;;;13.70;91.30;;;;;;4971103;28;20039;-77
2024/04/01 05:49:59;;;;;;;25.13;13.00;;;13.90;91.40;;;;;;4972719;28;20667;-77
2024/04/01 05:52:25;;;;;;;33.50;13.50;;;14.00;91.00;;;;;;4972366;28;20046;-77
2024/04/01 05:54:50;;;;;;;26.20;12.25;;;14.10;90.80;;;;;;4972567;28;20499;-77
2024/04/01 05:57:16;;;;;;;34.60;13.70;;;14.20;90.60;;;;;;4971487;28;20027;-77
2024/04/01 05:59:44;;;;;;;34.75;15.25;;;14.30;90.40;;;;;;4957024;28;20144;-78
2024/04/01 06:02:10;;;;;;;25.67;13.00;;;14.30;90.10;;;;;;4956497;28;20037;-77
2024/04/01 06:04:36;;;;;;;32.40;14.43;;;14.40;90.00;;;;;;4958629;28;20024;-77
2024/04/01 06:07:02;;;;;;;28.20;13.45;;;14.50;89.40;;;;;;4949972;28;20469;-77
2024/04/01 06:09:27;;;;;;;29.65;12.20;;;14.60;89.00;;;;;;4960120;28;20030;-78
2024/04/01 06:11:53;;;;;;;28.08;12.13;;;14.70;88.40;;;;;;4948277;28;20108;-77
2024/04/01 06:14:19;;;;;;;24.08;13.05;;;15.10;87.60;;;;;;4959065;28;20073;-78
2024/04/01 06:16:45;;;;;;;27.58;12.95;;;15.30;86.10;;;;;;4959858;28;20024;-78
2024/04/01 06:19:10;;;;;;;31.85;12.90;;;15.40;85.20;;;;;;4965569;28;20042;-78
2024/04/01 06:21:36;;;;;;;35.60;14.10;;;15.40;84.70;;;;;;4953587;28;20074;-79
2024/04/01 06:24:02;;;;;;;24.65;11.23;;;15.50;84.80;;;;;;4953433;28;20027;-79
2024/04/01 06:26:28;;;;;;;29.90;12.35;;;15.60;83.50;;;;;;4953264;29;20485;-78
2024/04/01 06:28:55;;;;;;;23.98;13.35;;;15.60;83.10;;;;;;4953624;29;20031;-78
2024/04/01 06:31:21;;;;;;;30.38;11.20;;;15.60;83.00;;;;;;4952985;29;20019;-78
2024/04/01 06:33:47;;;;;;;32.80;12.73;;;15.60;82.90;;;;;;4952956;29;20042;-78
2024/04/01 06:36:12;;;;;;;32.47;12.27;;;15.70;82.60;;;;;;4953191;29;20024;-77
2024/04/01 06:38:39;;;;;;;32.90;12.30;;;15.70;82.00;;;;;;4952969;29;20036;-78
2024/04/01 06:41:05;;;;;;;22.90;12.00;;;15.70;81.30;;;;;;4953034;29;20020;-77
2024/04/01 06:43:31;;;;;;;41.88;14.80;;;15.80;81.60;;;;;;4952994;29;20368;-79
2024/04/01 06:45:58;;;;;;;27.73;12.50;;;15.90;81.20;;;;;;4953020;29;20463;-80
2024/04/01 06:48:25;;;;;;;26.48;12.55;;;16.20;80.50;;;;;;4954682;28;20098;-79
2024/04/01 06:50:52;;;;;;;22.93;10.00;;;16.40;79.80;;;;;;4956453;29;20027;-79
2024/04/01 06:53:18;;;;;;;25.80;12.65;;;16.60;78.60;;;;;;4948145;29;20090;-78
2024/04/01 06:55:44;;;;;;;32.35;12.45;;;16.60;78.40;;;;;;4954342;28;20027;-78
2024/04/01 06:58:11;;;;;;;21.85;11.95;;;16.70;77.90;;;;;;4957215;28;20520;-77
2024/04/01 07:00:38;;;;;;;29.75;12.10;;;16.80;77.50;;;;;;4957866;28;20027;-78
2024/04/01 07:03:04;;;;;;;35.17;13.25;;;16.90;76.70;;;;;;4952870;28;20034;-79
2024/04/01 07:05:30;;;;;;;30.25;11.38;;;17.00;76.50;;;;;;4952110;28;20098;-78
2024/04/01 07:07:57;;;;;;;28.88;10.65;;;17.20;75.60;;;;;;4955541;28;20039;-80
2024/04/01 07:10:23;;;;;;;38.20;12.88;;;17.50;74.80;;;;;;4950689;29;20027;-79
2024/04/01 07:12:49;;;;;;;24.15;10.88;;;18.40;74.00;;;;;;4933845;29;20035;-79
2024/04/01 07:15:15;;;;;;;29.25;10.65;;;19.80;70.00;;;;;;4935475;29;20508;-78
2024/04/01 07:17:43;;;;;;;42.88;12.93;;;20.80;65.90;;;;;;4956492;29;20023;-81
2024/04/01 07:20:10;;;;;;;27.20;12.07;;;21.60;63.90;;;;;;4951337;29;20018;-78
2024/04/01 07:22:36;;;;;;;32.50;11.82;;;22.80;61.00;;;;;;4952926;29;20023;-79
2024/04/01 07:25:04;;;;;;;25.17;12.07;;;24.10;57.30;;;;;;4955739;28;20050;-78
2024/04/01 07:27:34;;;;;;;30.05;11.57;;;24.80;54.40;;;;;;4954644;29;20043;-78
2024/04/01 07:30:06;;;;;;;20.63;10.68;;;25.00;53.10;;;;;;4956272;29;20029;-80
2024/04/01 07:32:33;;;;;;;29.23;11.18;;;25.60;51.30;;;;;;4953051;29;20043;-77
2024/04/01 07:35:01;;;;;;;28.60;11.68;;;25.60;51.10;;;;;;4949888;29;20035;-78
2024/04/01 07:37:27;;;;;;;31.95;12.27;;;25.50;50.00;;;;;;4953890;29;20531;-78
2024/04/01 07:39:54;;;;;;;22.50;9.40;;;25.20;50.40;;;;;;4955511;29;20050;-77
2024/04/01 07:42:20;;;;;;;28.38;10.77;;;26.10;49.20;;;;;;4955111;29;20026;-77
2024/04/01 07:44:47;;;;;;;28.13;9.63;;;26.50;47.80;;;;;;4953492;29;20047;-78
2024/04/01 07:47:13;;;;;;;26.75;10.02;;;27.00;48.30;;;;;;4953668;29;20289;-78
2024/04/01 07:49:39;;;;;;;26.02;8.95;;;25.90;46.70;;;;;;4938171;29;20043;-78
2024/04/01 07:52:06;;;;;;;21.05;7.63;;;24.80;48.00;;;;;;4955120;29;20408;-79
2024/04/01 07:54:33;;;;;;;25.05;7.78;;;24.10;48.40;;;;;;4952271;29;20111;-76
2024/04/01 07:57:02;;;;;;;14.48;7.72;;;23.70;49.60;;;;;;4948339;29;20484;-77
2024/04/01 07:59:33;;;;;;;23.23;8.52;;;23.70;49.40;;;;;;4969257;28;20415;-77
2024/04/01 08:02:03;;;;;;;29.02;10.80;;;23.30;49.70;;;;;;4974291;28;20027;-77
2024/04/01 08:04:29;;;;;;;19.10;7.80;;;23.10;50.10;;;;;;4974177;28;20026;-77
2024/04/01 08:06:55;;;;;;;17.05;7.55;;;23.50;49.50;;;;;;4973257;28;20399;-77
2024/04/01 08:09:21;;;;;;;23.67;8.68;;;23.90;48.60;;;;;;4974336;28;20058;-78
2024/04/01 08:11:48;;;;;;;19.43;8.60;;;24.50;47.20;;;;;;4972487;28;20118;-79
2024/04/01 08:14:14;;;;;;;28.15;8.50;;;25.30;46.70;;;;;;4972692;28;20623;-75
2024/04/01 08:16:42;;;;;;;17.20;7.30;;;25.30;45.30;;;;;;4972714;28;20050;-78
2024/04/01 08:19:08;;;;;;;18.88;7.32;;;24.70;45.70;;;;;;4972523;28;20380;-76
2024/04/01 08:21:34;;;;;;;18.15;7.70;;;24.70;45.80;;;;;;4973464;28;20090;-79
2024/04/01 08:24:00;;;;;;;13.27;6.93;;;25.30;45.10;;;;;;4973983;28;20027;-76
2024/04/01 08:26:26;;;;;;;13.93;6.65;;;26.40;43.40;;;;;;4973906;28;20023;-76
2024/04/01 08:28:52;;;;;;;18.23;7.53;;;27.10;42.60;;;;;;4967149;28;20046;-76
2024/04/01 08:31:18;;;;;;;15.20;5.33;;;27.30;41.90;;;;;;4969648;28;20105;-78
2024/04/01 08:33:44;;;;;;;18.77;6.72;;;26.90;40.90;;;;;;4970728;28;20035;-75
2024/04/01 08:36:10;;;;;;;15.33;6.00;;;26.70;41.20;;;;;;4972960;28;20502;-78
2024/04/01 08:38:36;;;;;;;20.30;6.93;;;26.60;40.70;;;;;;4968303;28;20050;-77
2024/04/01 08:41:11;;;;;;;15.80;5.83;;;27.30;40.80;;;;;;4974084;28;20035;-77
2024/04/01 08:43:44;;;;;;;11.52;5.03;;;28.60;39.20;;;;;;4972015;28;20086;-78
2024/04/01 08:46:11;;;;;;;11.80;5.85;;;28.20;38.10;;;;;;4973530;28;20027;-73
2024/04/01 08:48:44;;;;;;;11.25;4.85;;;28.50;37.90;;;;;;4973668;28;20035;-77
2024/04/01 08:51:10;;;;;;;10.65;4.47;;;28.20;37.20;;;;;;4979701;28;20062;-77
2024/04/01 08:53:39;;;;;;;19.40;5.23;;;28.00;37.40;;;;;;4964999;28;20506;-77
2024/04/01 08:56:07;;;;;;;21.30;5.95;;;28.80;36.90;;;;;;4969819;28;20082;-76
2024/04/01 08:58:33;;;;;;;16.63;4.80;;;29.80;36.00;;;;;;4971712;28;20039;-76
2024/04/01 09:01:01;;;;;;;13.50;4.57;;;29.10;35.10;;;;;;4973441;28;20102;-75
2024/04/01 09:03:27;;;;;;;9.48;4.47;;;29.30;35.50;;;;;;4972067;28;20297;-74
2024/04/01 09:05:56;;;;;;;20.83;6.07;;;28.80;35.30;;;;;;4969767;28;20030;-76
2024/04/01 09:08:23;;;;;;;14.50;5.72;;;29.30;35.30;;;;;;4968194;28;20125;-77
2024/04/01 09:10:52;;;;;;;14.20;4.90;;;29.80;35.10;;;;;;4972933;28;20031;-76
2024/04/01 09:13:19;;;;;;;13.57;3.55;;;29.90;34.50;;;;;;4968922;28;20027;-75
2024/04/01 09:15:46;;;;;;;12.27;4.53;;;29.70;34.40;;;;;;4965417;28;20070;-77
2024/04/01 09:18:13;;;;;;;21.77;5.20;;;29.10;34.70;;;;;;4973082;28;20027;-75
2024/04/01 09:20:43;;;;;;;8.07;3.85;;;29.20;35.10;;;;;;4969713;28;20098;-76
2024/04/01 09:23:10;;;;;;;18.88;5.30;;;30.20;34.30;;;;;;4973048;28;20584;-78
2024/04/01 09:25:36;;;;;;;13.60;4.07;;;29.40;34.90;;;;;;4973001;28;20073;-77
2024/04/01 09:28:03;;;;;;;10.60;4.53;;;29.30;34.70;;;;;;4972689;28;20093;-79
2024/04/01 09:30:28;;;;;;;11.70;6.20;;;29.80;34.60;;;;;;4973132;28;20105;-76
2024/04/01 09:32:54;;;;;;;12.50;5.10;;;30.30;34.20;;;;;;4971137;28;20105;-77
2024/04/01 09:35:25;;;;;;;13.50;4.75;;;30.40;34.10;;;;;;4972614;28;20022;-76
2024/04/01 09:37:51;;;;;;;13.25;5.25;;;29.90;34.30;;;;;;4972911;28;20029;-76
2024/04/01 09:40:17;;;;;;;14.48;4.72;;;29.60;34.80;;;;;;4967115;28;20515;-78
2024/04/01 09:42:44;;;;;;;;;;;30.00;34.50;;;;;;4973803;28;20045;-78
2024/04/01 09:45:10;;;;;;;19.27;4.38;;;30.80;34.50;;;;;;4973317;28;20284;-80
2024/04/01 09:47:40;;;;;;;16.60;4.93;;;30.80;33.60;;;;;;4972964;28;20030;-76
2024/04/01 09:50:10;;;;;;;13.88;4.88;;;29.70;34.10;;;;;;4973014;28;20284;-77
2024/04/01 09:52:36;;;;;;;13.70;4.97;;;29.40;34.60;;;;;;4972843;28;20486;-78
2024/04/01 09:55:12;;;;;;;13.07;5.30;;;29.50;35.20;;;;;;4972425;28;20050;-78
2024/04/01 09:57:41;;;;;;;;;;;30.50;34.30;;;;;;4965011;28;20083;-77
2024/04/01 10:00:17;;;;;;;16.58;5.75;;;29.90;34.40;;;;;;4973238;28;19917;-78
2024/04/01 10:03:06;;;;;;;19.92;6.18;;;28.70;35.40;;;;;;4972443;28;20118;-78
2024/04/01 10:05:50;;;;;;;15.07;5.72;;;28.70;35.70;;;;;;4969161;28;20026;-78
2024/04/01 10:08:57;;;;;;;18.75;6.07;;;28.60;35.80;;;;;;4956250;28;20037;-79
2024/04/01 10:11:56;;;;;;;22.75;6.47;;;28.80;36.10;;;;;;4968494;28;20480;-80
2024/04/01 10:14:49;;;;;;;15.80;5.32;;;28.80;36.20;;;;;;4972511;28;20038;-79
2024/04/01 10:17:47;;;;;;;20.73;6.68;;;28.80;36.00;;;;;;4971971;28;20105;-78
2024/04/01 10:20:15;;;;;;;19.23;6.65;;;28.80;36.50;;;;;;4961282;28;20046;-77
2024/04/01 10:22:44;;;;;;;29.67;7.43;;;28.30;36.70;;;;;;4968697;28;20480;-77
2024/04/01 10:25:37;;;;;;;16.48;5.75;;;28.00;37.10;;;;;;4976115;28;20023;-78
2024/04/01 10:28:33;;;;;;;20.70;6.88;;;26.90;37.90;;;;;;4975629;28;20034;-79
2024/04/01 10:31:08;;;;;;;;;;;26.20;39.20;;;;;;4963971;28;20527;-79
2024/04/01 10:34:04;;;;;;;18.02;7.15;;;25.80;39.20;;;;;;4974868;28;20021;-80
2024/04/01 10:36:32;;;;;;;28.85;7.72;;;25.50;40.10;;;;;;4976411;28;20431;-79
2024/04/01 10:39:16;;;;;;;17.67;7.00;;;25.30;40.60;;;;;;4975650;28;20027;-80
2024/04/01 10:41:57;;;;;;;15.70;6.22;;;25.00;41.00;;;;;;4974461;28;20487;-77
2024/04/01 10:45:14;;;;;;;22.75;7.90;;;24.90;41.10;;;;;;4968526;28;20054;-79
2024/04/01 10:48:04;;;;;;;21.40;7.03;;;24.80;41.50;;;;;;4934837;29;21012;-77
2024/04/01 10:50:51;;;;;;;14.95;5.80;;;24.80;41.60;;;;;;4935043;29;20035;-79
2024/04/01 10:53:39;;;;;;;14.68;5.80;;;24.70;41.60;;;;;;4935214;29;20031;-78
2024/04/01 10:56:23;;;;;;;16.73;5.05;;;24.10;42.30;;;;;;4934518;29;20453;-77
2024/04/01 10:59:19;;;;;;;19.33;6.88;;;23.80;42.60;;;;;;4934692;29;20571;-77
2024/04/01 11:02:16;;;;;;;26.48;10.40;;;23.70;43.00;;;;;;4934873;29;20043;-77
2024/04/01 11:05:13;;;;;;;19.42;5.93;;;23.80;43.00;;;;;;4934865;29;20168;-76
2024/04/01 11:07:47;;;;;;;19.85;6.13;;;23.70;42.60;;;;;;4934594;28;20043;-76
2024/04/01 11:10:47;;;;;;;16.58;5.70;;;23.50;42.30;;;;;;4934121;29;20511;-77
2024/04/01 11:13:19;;;;;;;17.23;5.93;;;23.20;42.90;;;;;;4933066;29;20024;-77
2024/04/01 11:15:50;;;;;;;23.10;5.95;;;23.10;43.10;;;;;;4930576;29;20117;-75
2024/04/01 11:18:37;;;;;;;14.90;5.53;;;23.10;42.80;;;;;;4934208;29;20019;-79
2024/04/01 11:21:21;;;;;;;;;;;23.20;42.60;;;;;;4940817;29;20035;-79
2024/04/01 11:24:00;;;;;;;22.55;5.80;;;23.20;42.40;;;;;;4973994;28;19929;-76
2024/04/01 11:27:01;;;;;;;14.88;5.78;;;23.40;42.20;;;;;;4974796;28;20392;-78
2024/04/01 11:29:50;;;;;;;22.27;6.60;;;23.20;42.50;;;;;;4909274;29;20044;-78
2024/04/01 11:32:18;;;;;;;15.30;5.55;;;23.20;42.80;;;;;;4915836;29;20032;-80
2024/04/01 11:35:14;;;;;;;15.18;6.65;;;23.10;42.50;;;;;;4911166;29;20029;-76
2024/04/01 11:37:42;;;;;;;18.53;6.67;;;23.10;42.50;;;;;;4915131;29;20047;-77
2024/04/01 11:40:11;;;;;;;18.42;5.93;;;23.10;42.20;;;;;;4912085;29;20067;-76
2024/04/01 11:42:42;;;;;;;21.30;6.57;;;23.10;42.40;;;;;;4915311;29;20075;-77
2024/04/01 11:45:11;;;;;;;12.07;6.40;;;23.10;42.40;;;;;;4908433;29;20032;-76
2024/04/01 11:47:40;;;;;;;12.85;5.40;;;23.00;42.40;;;;;;4915753;29;20123;-76
2024/04/01 11:50:20;;;;;;;14.15;6.15;;;23.10;42.90;;;;;;4922926;29;20425;-77
2024/04/01 11:53:07;;;;;;;10.68;4.10;;;23.20;42.10;;;;;;4898626;29;20179;-78
2024/04/01 11:55:33;;;;;;;14.90;6.22;;;23.10;41.70;;;;;;4914962;29;20111;-76
2024/04/01 11:58:09;;;;;;;12.80;5.70;;;22.90;42.00;;;;;;4911255;29;20197;-78
2024/04/01 12:00:35;;;;;;;10.70;4.80;;;22.90;42.00;;;;;;4909560;29;20441;-77
2024/04/01 12:03:02;;;;;;;16.38;6.40;;;22.90;41.70;;;;;;4935249;28;20030;-76
2024/04/01 12:05:28;;;;;;;8.40;4.57;;;23.00;41.70;;;;;;4974972;28;20074;-78
2024/04/01 12:07:56;;;;;;;15.65;5.82;;;23.10;41.20;;;;;;4973875;28;20057;-78
2024/04/01 12:10:22;;;;;;;10.77;5.15;;;22.80;41.60;;;;;;4974613;28;20026;-82
2024/04/01 12:12:51;;;;;;;10.98;5.55;;;22.80;41.70;;;;;;4973346;28;20031;-78
2024/04/01 12:15:22;;;;;;;14.20;5.18;;;22.80;42.00;;;;;;4971795;28;20031;-78
2024/04/01 12:17:49;;;;;;;21.90;6.03;;;22.90;42.10;;;;;;4974032;28;20074;-77
2024/04/01 12:20:15;;;;;;;;;;;22.90;41.80;;;;;;4974292;28;20033;-77
2024/04/01 12:22:41;;;;;;;16.83;6.00;;;22.80;41.70;;;;;;4973854;28;20004;-79
2024/04/01 12:25:15;;;;;;;20.13;6.07;;;22.70;41.70;;;;;;4973970;28;20023;-78
2024/04/01 12:27:43;;;;;;;22.48;6.00;;;22.80;41.50;;;;;;4959051;28;20347;-76
2024/04/01 12:30:09;;;;;;;9.73;4.22;;;22.80;41.10;;;;;;4966153;28;20039;-79
2024/04/01 12:32:42;;;;;;;12.27;4.28;;;22.90;40.60;;;;;;4973788;28;20106;-78
2024/04/01 12:35:12;;;;;;;12.70;4.53;;;22.80;40.70;;;;;;4973359;28;20022;-78
2024/04/01 12:37:42;;;;;;;18.52;5.40;;;22.70;40.50;;;;;;4973874;28;20019;-75
2024/04/01 12:40:08;;;;;;;20.85;5.28;;;22.60;40.60;;;;;;4973627;28;20045;-75
2024/04/01 12:42:38;;;;;;;12.95;5.13;;;22.50;40.70;;;;;;4973495;28;20042;-77